createdAt,value
2022-08-18T00:01:17.098Z,26.40
2022-08-18T00:06:22.010Z,26.40
2022-08-18T00:11:25.144Z,26.40
2022-08-18T00:16:29.601Z,26.40
2022-08-18T00:21:33.629Z,26.40
2022-08-18T00:26:37.176Z,26.40
2022-08-18T00:31:41.784Z,26.30
2022-08-18T00:36:44.855Z,26.40
2022-08-18T00:41:47.971Z,26.30
2022-08-18T00:46:52.520Z,26.30
2022-08-18T00:51:56.291Z,26.30
2022-08-18T00:57:01.481Z,26.30
2022-08-18T01:02:10.393Z,26.30
2022-08-18T01:07:20.500Z,26.30
2022-08-18T01:12:45.320Z,26.30
2022-08-18T01:18:06.476Z,26.30
2022-08-18T01:23:16.697Z,26.20
2022-08-18T01:28:20.728Z,26.30
2022-08-18T01:33:30.022Z,26.20
2022-08-18T01:38:34.875Z,26.20
2022-08-18T01:43:38.364Z,26.20
2022-08-18T01:48:42.536Z,26.20
2022-08-18T01:53:48.632Z,26.20
2022-08-18T01:58:51.678Z,26.20
2022-08-18T02:04:23.695Z,26.20
2022-08-18T02:09:25.172Z,26.10
2022-08-18T02:14:28.344Z,26.10
2022-08-18T02:19:35.744Z,26.10
2022-08-18T02:24:40.352Z,26.10
2022-08-18T02:29:43.506Z,26.10
2022-08-18T02:34:46.979Z,26.10
2022-08-18T02:39:51.595Z,26.10
2022-08-18T02:44:54.834Z,26.10
2022-08-18T02:49:57.971Z,26.10
2022-08-18T02:55:03.368Z,26.10
2022-08-18T03:00:07.260Z,26.00
2022-08-18T03:05:10.872Z,26.00
2022-08-18T03:10:32.892Z,26.00
2022-08-18T03:15:37.457Z,26.00
2022-08-18T03:20:41.286Z,26.00
2022-08-18T03:25:47.373Z,26.00
2022-08-18T03:30:50.488Z,26.00
2022-08-18T03:35:53.684Z,26.00
2022-08-18T03:40:58.194Z,26.00
2022-08-18T03:46:03.413Z,26.00
2022-08-18T03:51:08.305Z,26.00
2022-08-18T03:56:17.753Z,26.00
2022-08-18T04:01:26.276Z,25.90
2022-08-18T04:06:32.361Z,25.90
2022-08-18T04:11:43.287Z,25.90
2022-08-18T04:16:49.073Z,25.90
2022-08-18T04:21:53.899Z,25.90
2022-08-18T04:26:59.633Z,25.90
2022-08-18T04:32:04.929Z,25.90
2022-08-18T04:37:09.660Z,25.90
2022-08-18T04:42:14.203Z,25.90
2022-08-18T04:47:17.327Z,25.90
2022-08-18T04:52:41.627Z,25.90
2022-08-18T04:57:46.482Z,25.90
2022-08-18T05:02:49.566Z,25.90
2022-08-18T05:07:52.749Z,25.90
2022-08-18T05:12:57.556Z,25.90
2022-08-18T05:18:00.613Z,25.70
2022-08-18T05:23:05.013Z,25.40
2022-08-18T05:28:09.941Z,25.10
2022-08-18T05:33:13.020Z,24.80
2022-08-18T05:38:29.934Z,24.50
2022-08-18T05:43:35.100Z,24.10
2022-08-18T05:48:43.705Z,24.20
2022-08-18T05:54:05.183Z,24.30
2022-08-18T05:59:11.325Z,24.30
2022-08-18T06:04:20.485Z,24.30
2022-08-18T06:09:27.198Z,24.40
2022-08-18T06:14:31.911Z,24.40
2022-08-18T06:19:44.998Z,24.40
2022-08-18T06:24:56.399Z,24.40
2022-08-18T06:30:09.258Z,24.40
2022-08-18T06:35:19.250Z,24.30
2022-08-18T06:40:22.291Z,24.40
2022-08-18T06:45:36.443Z,24.40
2022-08-18T06:50:49.836Z,24.50
2022-08-18T06:55:53.040Z,24.50
2022-08-18T07:01:01.411Z,24.60
2022-08-18T07:06:07.334Z,24.60
2022-08-18T07:11:20.186Z,24.60
2022-08-18T07:16:56.689Z,24.60
2022-08-18T07:22:04.325Z,24.70
2022-08-18T07:27:11.361Z,24.80
2022-08-18T07:32:21.576Z,24.80
2022-08-18T07:37:29.266Z,24.90
2022-08-18T07:43:00.923Z,24.80
2022-08-18T07:48:36.553Z,24.80
2022-08-18T07:53:42.539Z,24.80
2022-08-18T07:59:02.759Z,24.90
2022-08-18T08:04:25.087Z,24.90
2022-08-18T08:09:37.810Z,25.10
2022-08-18T08:14:43.470Z,25.10
2022-08-18T08:20:03.604Z,25.20
2022-08-18T08:25:35.139Z,25.40
2022-08-18T08:30:44.141Z,25.40
2022-08-18T08:35:55.962Z,25.50
2022-08-18T08:41:03.460Z,25.70
2022-08-18T08:46:11.103Z,25.70
2022-08-18T08:51:30.455Z,25.70
2022-08-18T08:56:40.194Z,25.80
2022-08-18T09:01:49.763Z,25.80
2022-08-18T09:07:06.584Z,25.90
2022-08-18T09:12:21.738Z,26.00
2022-08-18T09:17:50.909Z,26.00
2022-08-18T09:22:59.755Z,26.10
2022-08-18T09:28:12.356Z,26.00
2022-08-18T09:33:25.039Z,26.00
2022-08-18T09:38:49.988Z,26.00
2022-08-18T09:44:11.952Z,26.10
2022-08-18T09:49:51.392Z,26.10
2022-08-18T09:55:02.986Z,26.10
2022-08-18T10:00:28.611Z,26.00
2022-08-18T10:05:33.251Z,26.10
2022-08-18T10:11:00.727Z,26.20
2022-08-18T10:16:22.465Z,26.20
2022-08-18T10:27:13.489Z,26.20
2022-08-18T10:38:15.123Z,26.20
2022-08-18T10:43:55.363Z,26.20
2022-08-18T10:49:06.956Z,26.20
2022-08-18T10:54:18.662Z,26.20
2022-08-18T10:59:47.765Z,26.20
2022-08-18T11:04:58.910Z,26.20
2022-08-18T11:15:55.726Z,26.20
2022-08-18T11:21:33.143Z,26.20
2022-08-18T11:26:39.162Z,26.30
2022-08-18T11:31:43.840Z,26.30
2022-08-18T11:37:00.271Z,26.30
2022-08-18T11:42:03.659Z,26.30
2022-08-18T11:47:16.495Z,26.30
2022-08-18T11:52:29.305Z,26.40
2022-08-18T11:57:52.553Z,26.40
2022-08-18T12:03:04.319Z,26.40
2022-08-18T12:08:50.518Z,26.40
2022-08-18T12:13:45.741Z,26.40
2022-08-18T12:18:50.451Z,26.40
2022-08-18T12:23:56.800Z,26.40
2022-08-18T12:29:01.372Z,26.40
2022-08-18T12:34:06.338Z,26.40
2022-08-18T12:39:16.668Z,26.40
2022-08-18T12:44:20.132Z,26.50
2022-08-18T12:49:26.931Z,26.40
2022-08-18T12:54:30.245Z,26.40
2022-08-18T12:59:37.680Z,26.50
2022-08-18T13:04:42.378Z,26.50
2022-08-18T13:09:53.812Z,26.40
2022-08-18T13:14:58.162Z,26.50
2022-08-18T13:20:05.712Z,26.40
2022-08-18T13:25:10.872Z,26.40
2022-08-18T13:30:29.888Z,26.40
2022-08-18T13:35:38.239Z,26.40
2022-08-18T13:40:48.407Z,26.30
2022-08-18T13:45:52.938Z,26.30
2022-08-18T13:51:02.086Z,26.30
2022-08-18T13:56:05.623Z,26.30
2022-08-18T14:01:42.507Z,26.30
2022-08-18T14:06:33.886Z,26.20
2022-08-18T14:11:41.783Z,26.20
2022-08-18T14:16:45.001Z,26.20
2022-08-18T14:22:11.352Z,26.20
2022-08-18T14:27:15.312Z,26.20
2022-08-18T14:32:29.454Z,26.20
2022-08-18T14:37:34.611Z,26.20
2022-08-18T14:42:41.734Z,26.10
2022-08-18T14:47:58.130Z,26.10
2022-08-18T14:53:02.531Z,26.10
2022-08-18T14:58:07.105Z,26.10
2022-08-18T15:03:10.827Z,26.10
2022-08-18T15:08:15.898Z,26.10
2022-08-18T15:13:18.949Z,26.10
2022-08-18T15:18:23.868Z,26.10
2022-08-18T15:23:48.483Z,26.10
2022-08-18T15:28:54.961Z,26.00
2022-08-18T15:34:04.179Z,26.10
2022-08-18T15:39:08.595Z,26.00
2022-08-18T15:44:14.378Z,26.00
2022-08-18T15:49:18.984Z,25.90
2022-08-18T15:54:26.291Z,25.90
2022-08-18T15:59:39.721Z,25.80
2022-08-18T16:04:44.986Z,25.80
2022-08-18T16:09:49.974Z,25.80
2022-08-18T16:14:53.182Z,25.70
2022-08-18T16:19:56.232Z,25.70
2022-08-18T16:25:02.450Z,25.70
2022-08-18T16:30:06.189Z,25.70
2022-08-18T16:35:11.142Z,25.70
2022-08-18T16:40:16.386Z,25.70
2022-08-18T16:45:19.503Z,25.60
2022-08-18T16:50:23.489Z,25.60
2022-08-18T16:55:27.977Z,25.60
2022-08-18T17:00:55.322Z,25.50
2022-08-18T17:06:03.650Z,25.40
2022-08-18T17:11:10.650Z,25.40
2022-08-18T17:16:14.659Z,25.40
2022-08-18T17:21:20.305Z,25.30
2022-08-18T17:26:38.351Z,25.30
2022-08-18T17:31:49.166Z,25.20
2022-08-18T17:36:56.526Z,25.20
2022-08-18T17:42:18.354Z,25.20
2022-08-18T17:47:29.032Z,25.10
2022-08-18T17:52:40.574Z,25.10
2022-08-18T17:57:56.518Z,25.10
2022-08-18T18:03:02.355Z,25.10
2022-08-18T18:08:06.611Z,25.00
2022-08-18T18:13:25.378Z,25.00
2022-08-18T18:18:36.674Z,24.90
2022-08-18T18:23:43.064Z,24.90
2022-08-18T18:28:47.597Z,24.90
2022-08-18T18:33:57.900Z,24.80
2022-08-18T18:39:11.122Z,24.80
2022-08-18T18:44:16.883Z,24.80
2022-08-18T18:49:26.699Z,24.80
2022-08-18T18:54:51.930Z,24.70
2022-08-18T19:00:10.428Z,24.60
2022-08-18T19:05:21.398Z,24.70
2022-08-18T19:10:28.484Z,24.70
2022-08-18T19:15:38.255Z,24.60
2022-08-18T19:21:44.795Z,24.60
2022-08-18T19:26:13.644Z,24.60
2022-08-18T19:31:23.719Z,24.50
2022-08-18T19:36:36.277Z,24.50
2022-08-18T19:41:47.060Z,24.40
2022-08-18T19:46:55.379Z,24.50
2022-08-18T19:52:02.683Z,24.50
2022-08-18T19:57:22.964Z,24.50
2022-08-18T20:02:38.707Z,24.50
2022-08-18T20:08:06.006Z,24.50
2022-08-18T20:13:33.669Z,24.40
2022-08-18T20:18:40.452Z,24.40
2022-08-18T20:24:02.281Z,24.40
2022-08-18T20:29:05.876Z,24.40
2022-08-18T20:34:14.882Z,24.40
2022-08-18T20:39:45.406Z,24.40
2022-08-18T20:44:58.678Z,24.40
2022-08-18T20:50:33.906Z,24.30
2022-08-18T20:55:47.035Z,24.30
2022-08-18T21:00:55.644Z,24.30
2022-08-18T21:06:00.735Z,24.30
2022-08-18T21:11:07.567Z,24.30
2022-08-18T21:16:13.217Z,24.30
2022-08-18T21:21:28.163Z,24.30
2022-08-18T21:26:33.228Z,24.30
2022-08-18T21:31:42.601Z,24.30
2022-08-18T21:36:54.569Z,24.40
2022-08-18T21:41:59.538Z,24.40
2022-08-18T21:47:07.749Z,24.40
2022-08-18T21:52:23.344Z,24.50
2022-08-18T21:57:28.096Z,24.50
2022-08-18T22:02:31.235Z,24.50
2022-08-18T22:07:35.933Z,24.60
2022-08-18T22:12:56.743Z,24.60
2022-08-18T22:18:02.817Z,24.60
2022-08-18T22:23:35.736Z,24.80
2022-08-18T22:28:50.931Z,24.70
2022-08-18T22:33:55.286Z,24.70
2022-08-18T22:39:01.200Z,24.70
2022-08-18T22:44:05.624Z,24.70
2022-08-18T22:49:08.735Z,24.70
2022-08-18T22:54:14.789Z,24.70
2022-08-18T22:59:19.698Z,24.70
2022-08-18T23:04:25.485Z,24.70
2022-08-18T23:09:32.232Z,24.70
2022-08-18T23:14:35.767Z,24.80
2022-08-18T23:19:40.696Z,24.80
2022-08-18T23:24:45.203Z,24.70
2022-08-18T23:29:48.745Z,24.70
2022-08-18T23:34:52.055Z,24.80
2022-08-18T23:39:56.515Z,24.70
2022-08-18T23:45:03.160Z,24.80
2022-08-18T23:50:07.755Z,24.80
2022-08-18T23:55:14.761Z,24.80
